Flight Track Log - Related Links

Times and Time Zones

All times are in EDT time to prevent confusion due to time zone crossing. See the DAL2033 flight status page for this flight to view local times or setup timezone preferences in your user account.

Time Position Orientation Groundspeed Altitude Reporting Facility
EDT Latitude Longitude Course Direction KTS MPH feet Rate Location/Type
Wed 03:30:01 PM 33.6500 -84.4667 North 184 212 2,500  Level Atlanta TRACON
Wed 03:31:07 PM 33.6833 -84.5500 296° West 267 307 4,500 2,571 Climbing Atlanta TRACON
Wed 03:32:00 PM 33.8543 -84.1876 320° Northwest  Level FlightAware Approximate
Wed 03:32:07 PM 33.7500 -84.5833 337° Northwest 303 349 7,900  Level Atlanta TRACON
Wed 03:33:00 PM 33.9610 -84.2667 North  Level FlightAware Approximate
Wed 03:33:44 PM 33.8600 -84.5167 27° Northeast 315 362 10,900  Level Atlanta Center
Wed 03:34:00 PM 34.0914 -84.2667 North  Level FlightAware Approximate
Wed 03:34:44 PM 33.9378 -84.4119 48° Northeast 351 404 13,400  Level Atlanta Center
Wed 03:35:00 PM 34.2218 -84.2667 North  Level FlightAware Approximate
Wed 03:35:44 PM 34.0442 -84.3647 20° North 367 422 15,700  Level Atlanta Center
Wed 03:36:44 PM 34.1486 -84.3325 14° North 375 432 17,500 2,250 Climbing Atlanta Center
Wed 03:37:44 PM 34.2636 -84.2950 15° North 405 466 20,200 2,500 Climbing Atlanta Center
Wed 03:38:44 PM 34.3742 -84.2653 13° North 411 473 22,500 2,000 Climbing Atlanta Center
Wed 03:39:44 PM 34.4892 -84.2378 11° North 411 473 24,200 1,250 Climbing Atlanta Center
Wed 03:40:44 PM 34.6061 -84.2103 11° North 418 481 25,000 850 Climbing Atlanta Center
Wed 03:41:44 PM 34.7272 -84.1828 11° North 424 488 25,900 1,050 Climbing Atlanta Center
Wed 03:42:44 PM 34.8564 -84.1500 12° North 445 512 27,100 1,450 Climbing Atlanta Center
Wed 03:43:44 PM 34.9858 -84.1200 11° North 464 534 28,800 1,550 Climbing Atlanta Center
Wed 03:44:44 PM 35.1133 -84.0869 12° North 469 540 30,200 1,250 Climbing Atlanta Center
Wed 03:45:44 PM 35.2383 -84.0567 11° North 469 540 31,300 1,050 Climbing Atlanta Center
Wed 03:46:44 PM 35.3697 -84.0261 11° North 469 540 32,300 850 Climbing Atlanta Center
Wed 03:47:44 PM 35.4972 -83.9953 11° North 469 540 33,000 350 Climbing Atlanta Center
Wed 03:48:44 PM 35.6244 -83.9622 12° North 469 540 33,000  Level Atlanta Center
Wed 03:49:44 PM 35.7536 -83.9339 10° North 469 540 33,000  Level Atlanta Center
Wed 03:50:44 PM 35.8831 -83.9003 12° North 469 540 33,000  Level Atlanta Center
Wed 03:51:44 PM 36.0144 -83.8617 13° North 469 540 33,000  Level Atlanta Center
Wed 03:52:44 PM 36.1372 -83.8253 13° North 464 534 33,000  Level Atlanta Center
Wed 03:52:59 PM 36.1831 -83.8103 15° North 469 540 33,000  Level Indianapolis Center
Wed 03:54:01 PM 36.3106 -83.7725 13° North 470 541 33,000 242 Level Indianapolis Center
Wed 03:55:03 PM 36.4389 -83.7383 12° North 473 544 33,500 435 Climbing Indianapolis Center
Wed 03:56:05 PM 36.5747 -83.6906 16° North 491 565 33,900 244 Climbing Indianapolis Center
Wed 03:57:06 PM 36.6881 -83.6008 32° Northeast 483 556 34,000 49 Climbing Indianapolis Center
Wed 03:58:08 PM 36.7911 -83.4944 40° Northeast 479 551 34,000 48 Level Indianapolis Center
Wed 03:59:10 PM 36.8953 -83.3839 40° Northeast 485 558 34,100 387 Climbing Indianapolis Center
Wed 04:00:12 PM 36.9981 -83.2736 41° Northeast 482 555 34,800 439 Climbing Indianapolis Center
Wed 04:01:13 PM 37.1183 -83.1461 40° Northeast 479 551 35,000 98 Climbing Indianapolis Center
Wed 04:02:15 PM 37.2200 -83.0350 41° Northeast 480 552 35,000  Level Indianapolis Center
Wed 04:03:17 PM 37.3225 -82.9231 41° Northeast 481 554 35,000  Level Indianapolis Center
Wed 04:04:19 PM 37.4261 -82.8106 41° Northeast 487 560 35,000  Level Indianapolis Center
Wed 04:05:21 PM 37.5267 -82.6986 41° Northeast 482 555 35,000  Level Indianapolis Center
Wed 04:06:22 PM 37.6278 -82.5872 41° Northeast 481 554 35,000  Level Indianapolis Center
Wed 04:07:24 PM 37.7286 -82.4756 41° Northeast 482 555 35,000  Level Indianapolis Center
Wed 04:08:26 PM 37.8292 -82.3642 41° Northeast 479 551 35,000  Level Indianapolis Center
Wed 04:09:28 PM 37.9417 -82.2300 43° Northeast 478 550 35,000  Level Indianapolis Center
Wed 04:10:29 PM 38.0306 -82.1150 46° Northeast 481 554 35,000  Level Indianapolis Center
Wed 04:11:31 PM 38.1231 -81.9947 46° Northeast 479 551 35,000  Level Indianapolis Center
Wed 04:12:33 PM 38.2153 -81.8731 46° Northeast 478 550 35,000  Level Indianapolis Center
Wed 04:13:34 PM 38.3083 -81.7536 45° Northeast 477 549 35,000  Level Indianapolis Center
Wed 04:14:36 PM 38.4192 -81.6053 46° Northeast 483 556 35,000  Level Indianapolis Center
Wed 04:15:38 PM 38.5044 -81.4778 49° Northeast 479 551 35,000  Level Indianapolis Center
Wed 04:16:39 PM 38.5561 -81.3275 66° East 473 544 35,000  Level Indianapolis Center
Wed 04:17:41 PM 38.6039 -81.1753 68° East 470 541 35,000  Level Indianapolis Center
Wed 04:18:43 PM 38.6478 -81.0189 70° East 472 543 35,000  Level Indianapolis Center
Wed 04:19:45 PM 38.7028 -80.8364 69° East 462 532 35,000  Level Indianapolis Center
Wed 04:20:46 PM 38.7492 -80.6842 69° East 461 531 35,000  Level Indianapolis Center
Wed 04:21:48 PM 38.8019 -80.5333 66° East 465 535 35,000  Level Indianapolis Center
Wed 04:22:50 PM 38.8650 -80.3875 61° Northeast 470 541 35,000  Level Indianapolis Center
Wed 04:23:52 PM 38.9297 -80.2456 60° Northeast 465 535 35,000  Level Indianapolis Center
Wed 04:24:53 PM 39.0197 -80.1236 46° Northeast 473 544 35,000  Level Indianapolis Center
Wed 04:25:55 PM 39.1225 -80.0114 40° Northeast 471 542 35,000  Level Indianapolis Center
Wed 04:26:57 PM 39.2406 -79.8861 39° Northeast 470 541 35,000  Level Indianapolis Center
Wed 04:27:12 PM 39.2583 -79.8728 30° Northeast 464 534 35,000  Level Cleveland Center
Wed 04:28:12 PM 39.3597 -79.7617 40° Northeast 469 540 35,000  Level Cleveland Center
Wed 04:29:12 PM 39.4589 -79.6556 40° Northeast 469 540 35,000  Level Cleveland Center
Wed 04:30:12 PM 39.5558 -79.5464 41° Northeast 464 534 35,000  Level Cleveland Center
Wed 04:31:12 PM 39.6569 -79.4372 40° Northeast 464 534 35,000  Level Cleveland Center
Wed 04:32:12 PM 39.7581 -79.3247 41° Northeast 469 540 35,000  Level Cleveland Center
Wed 04:33:12 PM 39.8589 -79.2200 39° Northeast 469 540 35,000  Level Cleveland Center
Wed 04:34:12 PM 39.9575 -79.1042 42° Northeast 469 540 35,000  Level Cleveland Center
Wed 04:35:12 PM 40.0600 -78.9772 43° Northeast 464 534 35,000  Level Cleveland Center
Wed 04:36:12 PM 40.1606 -78.8661 40° Northeast 464 534 35,000  Level Cleveland Center
Wed 04:37:12 PM 40.2589 -78.7547 41° Northeast 464 534 35,000  Level Cleveland Center
Wed 04:38:12 PM 40.3572 -78.6431 41° Northeast 464 534 35,000  Level Cleveland Center
Wed 04:39:12 PM 40.4594 -78.5311 40° Northeast 470 541 35,000  Level Cleveland Center
Wed 04:40:12 PM 40.5572 -78.4158 42° Northeast 475 547 35,000  Level Cleveland Center
Wed 04:42:05 PM 40.7294 -78.2150 41° Northeast 493 567 35,000  Level New York Center
Wed 04:43:05 PM 40.8108 -78.0783 52° Northeast 480 552 35,000  Level New York Center
Wed 04:44:03 PM 40.8900 -77.9414 53° Northeast 474 545 35,000  Level New York Center
Wed 04:45:04 PM 40.9692 -77.8039 53° Northeast 464 534 35,000  Level New York Center
Wed 04:46:04 PM 41.0539 -77.6750 49° Northeast 464 534 35,000  Level New York Center
Wed 04:47:05 PM 41.1467 -77.5494 46° Northeast 464 534 35,000  Level New York Center
Wed 04:48:03 PM 41.2386 -77.4317 44° Northeast 464 534 35,000 -454 Level New York Center
Wed 04:49:04 PM 41.3269 -77.3050 47° Northeast 464 534 34,100 -793 Descending New York Center
Wed 04:50:04 PM 41.4172 -77.1811 46° Northeast 464 534 33,400 -793 Descending New York Center
Wed 04:51:05 PM 41.5206 -77.0383 46° Northeast 474 545 32,500 -893 Descending New York Center
Wed 04:52:05 PM 41.6128 -76.9083 46° Northeast 474 545 31,600 -807 Descending New York Center
Wed 04:53:04 PM 41.7047 -76.7806 46° Northeast 474 545 30,900 -756 Descending New York Center
Wed 04:54:04 PM 41.7967 -76.6497 47° Northeast 480 552 30,100 -1,006 Descending New York Center
Wed 04:55:39 PM 41.9394 -76.4539 46° Northeast 517 595 28,300 -1,394 Descending Boston Center
Wed 04:56:39 PM 42.0339 -76.3203 46° Northeast 497 572 26,500 -2,017 Descending Boston Center
Wed 04:57:38 PM 42.1258 -76.1886 47° Northeast 487 560 24,300 -1,250 Descending Boston Center
Wed 04:58:39 PM 42.2075 -76.0478 52° Northeast 480 552 24,000 -149 Descending Boston Center
Wed 04:59:39 PM 42.2997 -75.8986 50° Northeast 469 540 24,000  Level Boston Center
Wed 05:00:38 PM 42.3681 -75.7731 54° Northeast 464 534 24,000  Level Boston Center
Wed 05:01:39 PM 42.4308 -75.6189 61° Northeast 464 534 24,000 -99 Level Boston Center
Wed 05:02:39 PM 42.4750 -75.4550 70° East 464 534 23,800 -1,350 Descending Boston Center
Wed 05:03:39 PM 42.5292 -75.2914 66° East 464 534 21,300 -2,450 Descending Boston Center
Wed 05:04:39 PM 42.5853 -75.1361 64° Northeast 464 534 18,900 -2,688 Descending Boston Center
Wed 05:05:15 PM 42.6189 -75.0331 66° East 462 532 17,000 -2,400 Descending Boston Center
Wed 05:05:39 PM 42.6344 -74.9942 61° Northeast 440 506 16,500 -2,466 Descending Boston Center
Wed 05:06:28 PM 42.6811 -74.8578 65° Northeast 411 473 14,000 -2,680 Descending Boston Center
Wed 05:07:22 PM 42.7211 -74.7406 65° Northeast 404 465 11,900 -2,314 Descending Boston Center
Wed 05:07:38 PM 42.7322 -74.6986 70° East 411 473 11,300 -885 Descending Boston Center
Wed 05:08:23 PM 42.7675 -74.5953 65° Northeast 385 443 11,000 -295 Descending Boston Center
Wed 05:08:39 PM 42.7742 -74.5814 57° Northeast 388 447 11,000 -400 Level Boston Center
Wed 05:09:23 PM 42.8075 -74.4750 67° East 346 398 10,600 -600 Descending Boston Center
Wed 05:09:39 PM 42.8161 -74.4469 67° East 354 407 10,400 -1,082 Descending Boston Center
Wed 05:10:24 PM 42.8469 -74.3631 63° Northeast 321 369 9,500 -1,200 Descending Boston Center
Wed 05:10:39 PM 42.8492 -74.3489 78° East 325 374 9,200 -1,574 Descending Boston Center
Wed 05:11:25 PM 42.8736 -74.2506 71° East 309 356 7,900 -1,680 Descending Boston Center
Wed 05:12:19 PM 42.8858 -74.1458 81° East 304 350 6,400 -1,622 Descending Boston Center
Wed 05:12:39 PM 42.8881 -74.1206 83° East 306 352 5,900 -1,377 Descending Boston Center
Wed 05:13:20 PM 42.8978 -74.0358 81° East 296 341 5,000 -900 Descending Boston Center
Wed 05:13:39 PM 42.9022 -74.0047 79° East 287 330 5,000 -295 Level Boston Center
Wed 05:14:21 PM 42.9117 -73.9397 79° East 243 280 4,700 -600 Descending Boston Center
Wed 05:14:39 PM 42.9117 -73.9228 90° East 257 296 4,400 -1,500 Descending Boston Center
Wed 05:15:21 PM 42.9231 -73.8492 78° East 243 280 3,200 -1,400 Descending Boston Center
Wed 05:15:39 PM 42.9089 -73.8264 130° Southeast 235 270 3,000 -590 Descending Boston Center
Wed 05:16:22 PM 42.8778 -73.8114 161° South 177 204 2,600 -558 Descending Boston Center

Login

Don't have an account? Register now (free) for customized features, flight alerts, and more!